Главная страница
METAR-TAF:

METAR-TAF

Аэропорты :

Чебоксары, Россия

широта: 56-05-24N, долгота: 047-20-50E, высота над уровнем моря: 171 м

Текущие метеонаблюдения

Эта сводка был подготовлена 15 минут назад, в 23:30 UTC
Ветер 6 Узел от юго-западный
Температура 13°C
Влажность 82%
Давление 1017 hPa
Видимость 10 км и более
Нет облачности ниже 1500 м, и нет кучево-дождевой облачности

METAR: UWKS 192330Z 22003MPS CAVOK 13/10 Q1017 R06/010060 NOSIG RMK QFE748

Время: 02:45 (23:45 UTC)

Прогноз

Эта сводка был подготовлена 48 минут назад, в 22:57 UTC
Прогноз действительный с 20-го 00 UTC до 20-го 09 UTC
Ветер 6 Узел от юго-западный
Видимость 10 км и более
Отдельные облака на высоте 2000 фута
временами
С 20-го 04 UTC до 20-го 09 UTC
Ветер 10 Узел от западный-юго-западный с порывами до 21 Узел

TAF: UWKS 192257Z 2000/2009 22003MPS 9999 SCT020 TEMPO 2004/2009 24005G11MPS

Метеонаблюдения и прогнозы для более 4000 аэропортов (сводки METAR и TAF).

Имеющиеся станции представлены на карте желтыми и красными точками.

Чтобы увидеть название станции, наведите на нее мышь.

Затем щелкните, чтобы увидеть метеонаблюдения и метеопрогнозы.

Управление картой: чтобы увеличить масштаб, щелкните зеленые кнопки с черным крестиком; чтобы уменьшить масштаб, щелкните зеленую кнопку с тире; для просмотра соседних карт щелкайте зеленые стрелки.


METAR-TAF: